Time,TemperatureF,DewpointF,PressureIn,WindDirection,WindDirectionDegrees,WindSpeedMPH,WindSpeedGustMPH,Humidity,HourlyPrecipIn,Conditions,Clouds,dailyrainin,SolarRadiationWatts/m^2,SoftwareType,DateUTC
2013-07-15 00:00:00,53.1,53.1,29.94,South,180,6.5,14.1,100,0.00,,,0.00,0.00,VWS V14.01,2013-07-15 07:00:00,
2013-07-15 00:03:00,53.1,53.1,29.94,WSW,248,2.9,11.0,100,0.00,,,0.00,0.00,VWS V14.01,2013-07-15 07:03:00,
2013-07-15 00:09:00,52.7,52.7,29.94,SSE,158,7.8,14.5,100,0.00,,,0.00,0.00,VWS V14.01,2013-07-15 07:09:00,
2013-07-15 00:14:00,52.5,52.5,29.94,NNE,22,12.5,14.5,100,0.00,,,0.00,0.00,VWS V14.01,2013-07-15 07:14:00,
2013-07-15 00:15:00,52.5,52.5,29.94,SE,135,2.7,14.5,100,0.00,,,0.00,0.00,VWS V14.01,2013-07-15 07:15:00,
2013-07-15 00:19:00,52.5,52.5,29.94,SSW,202,5.6,12.5,100,0.00,,,0.00,0.00,VWS V14.01,2013-07-15 07:19:00,
2013-07-15 00:24:00,52.5,52.5,29.94,SW,225,4.9,12.5,100,0.00,,,0.00,0.00,VWS V14.01,2013-07-15 07:24:00,
2013-07-15 00:29:00,52.7,52.7,29.94,SSW,202,4.7,12.5,100,0.00,,,0.00,0.00,VWS V14.01,2013-07-15 07:29:00,
2013-07-15 00:30:00,52.7,52.7,29.94,East,90,2.2,12.5,100,0.00,,,0.00,0.00,VWS V14.01,2013-07-15 07:30:00,
2013-07-15 00:34:00,52.7,52.7,29.94,ENE,68,1.1,8.5,100,0.00,,,0.00,0.00,VWS V14.01,2013-07-15 07:34:00,
2013-07-15 00:39:00,52.7,52.7,29.94,NE,45,0.0,8.5,100,0.00,,,0.00,0.00,VWS V14.01,2013-07-15 07:39:00,
2013-07-15 00:45:00,52.7,52.7,29.91,NE,45,0.9,8.5,100,0.00,,,0.00,0.00,VWS V14.01,2013-07-15 07:45:00,
2013-07-15 00:50:00,52.9,52.9,29.91,ENE,68,0.0,4.0,100,0.00,,,0.00,0.00,VWS V14.01,2013-07-15 07:50:00,
2013-07-15 00:55:00,52.7,52.7,29.91,NE,45,3.4,5.6,100,0.00,,,0.00,0.00,VWS V14.01,2013-07-15 07:55:00,
2013-07-15 01:00:00,52.7,52.7,29.91,East,90,5.8,6.3,100,0.00,,,0.00,0.00,VWS V14.01,2013-07-15 08:00:00,
2013-07-15 01:05:00,52.9,52.9,29.91,ENE,68,3.4,5.8,100,0.00,,,0.00,0.00,VWS V14.01,2013-07-15 08:05:00,
2013-07-15 01:10:00,52.7,52.7,29.91,NE,45,4.9,8.5,100,0.00,,,0.00,0.00,VWS V14.01,2013-07-15 08:10:00,
2013-07-15 01:15:00,52.9,52.9,29.91,NNE,22,0.0,0.0,100,0.00,,,0.00,0.00,VWS V14.01,2013-07-15 08:15:00,
2013-07-15 01:20:00,52.9,52.9,29.91,East,90,0.0,3.4,100,0.00,,,0.00,0.00,VWS V14.01,2013-07-15 08:20:00,
2013-07-15 01:25:00,52.9,52.9,29.91,NW,315,1.1,4.3,100,0.00,,,0.00,0.00,VWS V14.01,2013-07-15 08:25:00,
2013-07-15 01:30:00,52.9,52.9,29.91,NE,45,1.6,3.1,100,0.00,,,0.00,0.00,VWS V14.01,2013-07-15 08:30:00,
2013-07-15 01:35:00,52.7,52.7,29.91,SE,135,0.0,5.8,100,0.00,,,0.00,0.00,VWS V14.01,2013-07-15 08:35:00,
2013-07-15 01:40:00,52.7,52.7,29.91,ENE,68,2.0,5.8,100,0.00,,,0.00,0.00,VWS V14.01,2013-07-15 08:40:00,
2013-07-15 01:45:00,52.5,52.5,29.91,East,90,3.6,4.3,100,0.00,,,0.00,0.00,VWS V14.01,2013-07-15 08:45:00,
2013-07-15 01:50:00,52.5,52.5,29.91,NE,45,2.5,4.9,100,0.00,,,0.00,0.00,VWS V14.01,2013-07-15 08:50:00,
2013-07-15 01:55:00,52.3,52.3,29.91,East,90,4.3,4.9,100,0.00,,,0.00,0.00,VWS V14.01,2013-07-15 08:55:00,
2013-07-15 02:00:00,52.2,52.2,29.91,North,0,3.1,5.6,100,0.00,,,0.00,0.00,VWS V14.01,2013-07-15 09:00:00,
2013-07-15 02:05:00,52.2,52.2,29.91,ENE,68,6.0,7.6,100,0.00,,,0.00,0.00,VWS V14.01,2013-07-15 09:05:00,
2013-07-15 02:11:00,52.0,52.0,29.91,NE,45,4.9,7.6,100,0.00,,,0.00,0.00,VWS V14.01,2013-07-15 09:11:00,
2013-07-15 02:15:00,52.0,52.0,29.91,NNE,22,3.6,11.0,100,0.00,,,0.00,0.00,VWS V14.01,2013-07-15 09:15:00,
2013-07-15 02:16:00,52.0,52.0,29.91,NE,45,3.6,3.6,100,0.00,,,0.00,0.00,VWS V14.01,2013-07-15 09:16:00,
2013-07-15 02:21:00,52.2,52.2,29.91,NNE,22,3.1,5.4,100,0.00,,,0.00,0.00,VWS V14.01,2013-07-15 09:21:00,
2013-07-15 02:26:00,52.2,52.2,29.91,NNE,22,3.1,5.8,100,0.00,,,0.00,0.00,VWS V14.01,2013-07-15 09:26:00,
2013-07-15 02:30:00,52.2,52.2,29.91,East,90,2.0,6.0,100,0.00,,,0.00,0.00,VWS V14.01,2013-07-15 09:30:00,
2013-07-15 02:31:00,52.3,52.3,29.91,NNE,22,2.5,2.9,100,0.00,,,0.00,0.00,VWS V14.01,2013-07-15 09:31:00,
2013-07-15 02:36:00,52.3,52.3,29.91,East,90,2.7,4.3,100,0.00,,,0.00,0.00,VWS V14.01,2013-07-15 09:36:00,
2013-07-15 02:41:00,52.3,52.3,29.91,NE,45,2.5,6.3,100,0.00,,,0.00,0.00,VWS V14.01,2013-07-15 09:41:00,
2013-07-15 02:45:00,52.3,52.3,29.91,East,90,2.0,6.3,100,0.00,,,0.00,0.00,VWS V14.01,2013-07-15 09:45:00,
2013-07-15 02:46:00,52.3,52.3,29.91,NNE,22,2.5,6.0,100,0.00,,,0.00,0.00,VWS V14.01,2013-07-15 09:46:00,
2013-07-15 02:51:00,52.2,52.2,29.91,NNW,338,0.0,6.0,100,0.00,,,0.00,0.00,VWS V14.01,2013-07-15 09:51:00,
2013-07-15 02:56:00,52.2,52.2,29.91,ESE,112,3.6,6.5,100,0.00,,,0.00,0.00,VWS V14.01,2013-07-15 09:56:00,
2013-07-15 03:00:00,52.2,52.2,29.91,SSE,158,3.1,6.5,100,0.00,,,0.00,0.00,VWS V14.01,2013-07-15 10:00:00,
2013-07-15 03:01:00,52.2,52.2,29.91,NNE,22,2.9,3.1,100,0.00,,,0.00,0.00,VWS V14.01,2013-07-15 10:01:00,
2013-07-15 03:06:00,52.2,52.2,29.91,NNE,22,3.8,7.8,100,0.00,,,0.00,0.00,VWS V14.01,2013-07-15 10:06:00,
2013-07-15 03:11:00,52.2,52.2,29.91,ENE,68,0.0,7.8,100,0.00,,,0.00,0.00,VWS V14.01,2013-07-15 10:11:00,
2013-07-15 03:15:00,52.3,52.3,29.91,NE,45,0.0,7.8,100,0.00,,,0.00,0.00,VWS V14.01,2013-07-15 10:15:00,
2013-07-15 03:16:00,52.3,52.3,29.91,NE,45,1.6,1.6,100,0.00,,,0.00,0.00,VWS V14.01,2013-07-15 10:16:00,
2013-07-15 03:21:00,52.2,52.2,29.91,North,0,2.0,4.0,100,0.00,,,0.00,0.00,VWS V14.01,2013-07-15 10:21:00,
2013-07-15 03:26:00,52.2,52.2,29.91,NNE,22,3.8,5.8,100,0.00,,,0.00,0.00,VWS V14.01,2013-07-15 10:26:00,
2013-07-15 03:30:00,52.2,52.2,29.91,NNE,22,0.0,5.8,100,0.00,,,0.00,0.00,VWS V14.01,2013-07-15 10:30:00,
2013-07-15 03:31:00,52.2,52.2,29.91,NNE,22,3.1,3.1,100,0.00,,,0.00,0.00,VWS V14.01,2013-07-15 10:31:00,
2013-07-15 03:36:00,52.2,52.2,29.91,ENE,68,4.9,4.9,100,0.00,,,0.00,0.00,VWS V14.01,2013-07-15 10:36:00,
2013-07-15 03:41:00,52.2,52.2,29.91,NE,45,2.9,4.9,100,0.00,,,0.00,0.00,VWS V14.01,2013-07-15 10:41:00,
2013-07-15 03:45:00,52.2,52.2,29.91,NNE,22,1.6,4.9,100,0.00,,,0.00,0.00,VWS V14.01,2013-07-15 10:45:00,
2013-07-15 03:46:00,52.2,52.2,29.91,East,90,1.6,3.8,100,0.00,,,0.00,0.00,VWS V14.01,2013-07-15 10:46:00,
2013-07-15 03:51:00,52.0,52.0,29.91,East,90,2.9,5.6,100,0.00,,,0.00,0.00,VWS V14.01,2013-07-15 10:51:00,
2013-07-15 03:56:00,52.0,52.0,29.91,ENE,68,1.6,5.6,100,0.00,,,0.00,0.00,VWS V14.01,2013-07-15 10:56:00,
2013-07-15 04:00:00,52.0,52.0,29.91,NE,45,0.0,5.6,100,0.00,,,0.00,0.00,VWS V14.01,2013-07-15 11:00:00,
2013-07-15 04:02:00,52.0,52.0,29.91,NE,45,4.9,4.9,100,0.00,,,0.00,0.00,VWS V14.01,2013-07-15 11:02:00,
2013-07-15 04:07:00,52.0,52.0,29.91,ENE,68,0.0,5.4,100,0.00,,,0.00,0.00,VWS V14.01,2013-07-15 11:07:00,
2013-07-15 04:12:00,52.0,52.0,29.91,North,0,0.0,5.4,100,0.00,,,0.00,0.00,VWS V14.01,2013-07-15 11:12:00,
2013-07-15 04:15:00,52.0,52.0,29.91,NNE,22,0.0,5.4,100,0.00,,,0.00,0.00,VWS V14.01,2013-07-15 11:15:00,
2013-07-15 04:17:00,52.0,52.0,29.91,East,90,0.0,4.0,100,0.00,,,0.00,0.00,VWS V14.01,2013-07-15 11:17:00,
2013-07-15 04:22:00,52.0,52.0,29.91,NE,45,3.4,4.0,100,0.00,,,0.00,0.00,VWS V14.01,2013-07-15 11:22:00,
2013-07-15 04:27:00,52.0,52.0,29.91,North,0,2.2,4.0,100,0.00,,,0.00,0.00,VWS V14.01,2013-07-15 11:27:00,
2013-07-15 04:30:00,52.0,52.0,29.91,NE,45,1.6,5.4,100,0.00,,,0.00,0.00,VWS V14.01,2013-07-15 11:30:00,
2013-07-15 04:32:00,51.8,51.8,29.91,NNE,22,4.7,4.7,100,0.00,,,0.00,0.00,VWS V14.01,2013-07-15 11:32:00,
2013-07-15 04:37:00,52.0,52.0,29.91,NNE,22,0.9,4.7,100,0.00,,,0.00,0.00,VWS V14.01,2013-07-15 11:37:00,
2013-07-15 04:42:00,51.8,51.8,29.91,East,90,3.6,6.5,100,0.00,,,0.00,0.00,VWS V14.01,2013-07-15 11:42:00,
2013-07-15 04:45:00,51.6,51.6,29.91,ENE,68,3.8,6.5,100,0.00,,,0.00,0.00,VWS V14.01,2013-07-15 11:45:00,
2013-07-15 04:47:00,51.6,51.6,29.91,ENE,68,1.1,3.8,100,0.00,,,0.00,0.00,VWS V14.01,2013-07-15 11:47:00,
2013-07-15 04:52:00,51.8,51.8,29.91,NE,45,4.3,4.3,100,0.00,,,0.00,0.00,VWS V14.01,2013-07-15 11:52:00,
2013-07-15 04:57:00,51.6,51.6,29.91,NNW,338,3.6,8.1,100,0.00,,,0.00,0.00,VWS V14.01,2013-07-15 11:57:00,
2013-07-15 05:00:00,51.6,51.6,29.91,North,0,2.2,8.1,100,0.00,,,0.00,0.00,VWS V14.01,2013-07-15 12:00:00,
2013-07-15 05:02:00,51.8,51.8,29.91,ENE,68,0.0,3.4,100,0.00,,,0.00,0.00,VWS V14.01,2013-07-15 12:02:00,
2013-07-15 05:07:00,51.6,51.6,29.91,ESE,112,0.0,5.4,100,0.00,,,0.00,0.00,VWS V14.01,2013-07-15 12:07:00,
2013-07-15 05:12:00,51.6,51.6,29.91,North,0,0.9,5.4,100,0.00,,,0.00,0.00,VWS V14.01,2013-07-15 12:12:00,
2013-07-15 05:15:00,51.6,51.6,29.91,North,0,2.9,5.4,100,0.00,,,0.00,0.00,VWS V14.01,2013-07-15 12:15:00,
2013-07-15 05:17:00,51.6,51.6,29.91,NNE,22,0.0,2.9,100,0.00,,,0.00,0.00,VWS V14.01,2013-07-15 12:17:00,
2013-07-15 05:22:00,51.6,51.6,29.91,ESE,112,2.2,4.3,100,0.00,,,0.00,0.00,VWS V14.01,2013-07-15 12:22:00,
2013-07-15 05:27:00,51.4,51.4,29.91,North,0,0.0,4.3,100,0.00,,,0.00,0.00,VWS V14.01,2013-07-15 12:27:00,
2013-07-15 05:30:00,51.4,51.4,29.91,North,0,2.5,4.3,100,0.00,,,0.00,0.00,VWS V14.01,2013-07-15 12:30:00,
2013-07-15 05:33:00,51.4,51.4,29.91,North,0,3.4,3.8,100,0.00,,,0.00,0.00,VWS V14.01,2013-07-15 12:33:00,
2013-07-15 05:38:00,51.4,51.4,29.91,NW,315,0.0,4.7,100,0.00,,,0.00,0.00,VWS V14.01,2013-07-15 12:38:00,
2013-07-15 05:43:00,51.6,51.6,29.91,NNE,22,2.5,4.7,100,0.00,,,0.00,0.00,VWS V14.01,2013-07-15 12:43:00,
2013-07-15 05:45:00,51.6,51.6,29.91,North,0,3.1,5.8,100,0.00,,,0.00,0.00,VWS V14.01,2013-07-15 12:45:00,
2013-07-15 05:48:00,51.6,51.6,29.91,NE,45,2.5,6.7,100,0.00,,,0.00,0.00,VWS V14.01,2013-07-15 12:48:00,
2013-07-15 05:53:00,51.6,51.6,29.91,East,90,1.1,6.7,100,0.00,,,0.00,0.00,VWS V14.01,2013-07-15 12:53:00,
2013-07-15 05:58:00,51.6,51.6,29.91,NNW,338,2.0,6.7,100,0.00,,,0.00,0.00,VWS V14.01,2013-07-15 12:58:00,
2013-07-15 06:00:00,51.4,51.4,29.91,East,90,2.0,6.7,100,0.00,,,0.00,0.00,VWS V14.01,2013-07-15 13:00:00,
2013-07-15 06:03:00,51.4,51.4,29.91,NE,45,0.0,2.0,100,0.00,,,0.00,0.00,VWS V14.01,2013-07-15 13:03:00,
2013-07-15 06:08:00,51.4,51.4,29.91,NE,45,2.9,5.6,100,0.00,,,0.00,0.00,VWS V14.01,2013-07-15 13:08:00,
2013-07-15 06:13:00,51.4,51.4,29.91,NE,45,2.5,5.6,100,0.00,,,0.00,0.00,VWS V14.01,2013-07-15 13:13:00,
2013-07-15 06:15:00,51.4,51.4,29.91,North,0,4.9,5.6,100,0.00,,,0.00,0.00,VWS V14.01,2013-07-15 13:15:00,
2013-07-15 06:18:00,51.4,51.4,29.91,East,90,0.0,4.9,100,0.00,,,0.00,0.00,VWS V14.01,2013-07-15 13:18:00,
2013-07-15 06:23:00,51.4,51.4,29.91,ENE,68,1.3,4.9,100,0.00,,,0.00,0.00,VWS V14.01,2013-07-15 13:23:00,
2013-07-15 06:28:00,51.6,51.6,29.91,ENE,68,2.5,4.9,100,0.00,,,0.00,0.00,VWS V14.01,2013-07-15 13:28:00,
2013-07-15 06:30:00,51.6,51.6,29.91,NE,45,1.3,4.9,100,0.00,,,0.00,0.00,VWS V14.01,2013-07-15 13:30:00,
2013-07-15 06:33:00,51.6,51.6,29.91,NNW,338,0.0,2.7,100,0.00,,,0.00,0.00,VWS V14.01,2013-07-15 13:33:00,
2013-07-15 06:38:00,51.6,51.6,29.91,ESE,112,1.6,4.0,100,0.00,,,0.00,0.00,VWS V14.01,2013-07-15 13:38:00,
2013-07-15 06:43:00,51.6,51.6,29.91,NNW,338,2.9,4.0,100,0.00,,,0.00,0.00,VWS V14.01,2013-07-15 13:43:00,
2013-07-15 06:45:00,51.6,51.6,29.91,ESE,112,0.0,4.0,100,0.00,,,0.00,0.00,VWS V14.01,2013-07-15 13:45:00,
2013-07-15 06:48:00,51.8,51.8,29.91,NNE,22,2.0,6.0,100,0.00,,,0.00,0.00,VWS V14.01,2013-07-15 13:48:00,
2013-07-15 06:53:00,51.6,51.6,29.91,ENE,68,2.5,6.0,100,0.00,,,0.00,0.00,VWS V14.01,2013-07-15 13:53:00,
2013-07-15 06:58:00,51.8,51.8,29.91,East,90,2.0,6.0,100,0.00,,,0.00,0.00,VWS V14.01,2013-07-15 13:58:00,
2013-07-15 07:00:00,51.8,51.8,29.91,NE,45,0.0,6.0,100,0.00,,,0.00,0.00,VWS V14.01,2013-07-15 14:00:00,
2013-07-15 07:03:00,51.8,51.8,29.91,East,90,0.0,3.6,100,0.00,,,0.00,0.00,VWS V14.01,2013-07-15 14:03:00,
2013-07-15 07:08:00,52.0,52.0,29.91,ENE,68,0.0,3.6,100,0.00,,,0.00,0.00,VWS V14.01,2013-07-15 14:08:00,
2013-07-15 07:14:00,52.0,52.0,29.91,ENE,68,3.8,4.0,100,0.00,,,0.00,0.00,VWS V14.01,2013-07-15 14:14:00,
2013-07-15 07:15:00,52.0,52.0,29.91,North,0,2.7,4.0,100,0.00,,,0.00,0.00,VWS V14.01,2013-07-15 14:15:00,
2013-07-15 07:19:00,51.8,51.8,29.91,ENE,68,1.1,3.6,100,0.00,,,0.00,0.00,VWS V14.01,2013-07-15 14:19:00,
2013-07-15 07:24:00,52.0,52.0,29.91,NE,45,0.9,4.9,100,0.00,,,0.00,0.00,VWS V14.01,2013-07-15 14:24:00,
2013-07-15 07:29:00,52.2,52.2,29.91,NE,45,2.0,4.9,100,0.00,,,0.00,0.00,VWS V14.01,2013-07-15 14:29:00,
2013-07-15 07:30:00,52.2,52.2,29.91,SW,225,1.6,4.9,100,0.00,,,0.00,0.00,VWS V14.01,2013-07-15 14:30:00,
2013-07-15 07:34:00,52.0,52.0,29.91,ENE,68,0.0,4.9,100,0.00,,,0.00,0.00,VWS V14.01,2013-07-15 14:34:00,
2013-07-15 07:39:00,52.2,52.2,29.91,ENE,68,3.1,4.9,100,0.00,,,0.00,0.00,VWS V14.01,2013-07-15 14:39:00,
2013-07-15 07:44:00,52.2,52.2,29.91,NE,45,0.0,4.9,100,0.00,,,0.00,0.00,VWS V14.01,2013-07-15 14:44:00,
2013-07-15 07:45:00,52.3,52.3,29.91,North,0,4.9,4.9,100,0.00,,,0.00,0.00,VWS V14.01,2013-07-15 14:45:00,
2013-07-15 07:49:00,52.3,52.3,29.91,NE,45,3.1,4.9,100,0.00,,,0.00,0.00,VWS V14.01,2013-07-15 14:49:00,
2013-07-15 07:54:00,52.3,52.3,29.91,East,90,2.0,4.9,100,0.00,,,0.00,0.00,VWS V14.01,2013-07-15 14:54:00,
2013-07-15 08:00:00,52.5,52.5,29.91,NE,45,0.9,4.9,100,0.00,,,0.00,0.00,VWS V14.01,2013-07-15 15:00:00,
2013-07-15 08:05:00,52.5,52.5,29.91,NE,45,4.3,6.0,100,0.00,,,0.00,0.00,VWS V14.01,2013-07-15 15:05:00,
2013-07-15 08:10:00,52.5,52.5,29.91,WNW,292,2.7,7.4,100,0.00,,,0.00,0.00,VWS V14.01,2013-07-15 15:10:00,
2013-07-15 08:15:00,52.5,52.5,29.91,North,0,1.3,2.7,100,0.00,,,0.00,0.00,VWS V14.01,2013-07-15 15:15:00,
2013-07-15 08:21:00,52.5,52.5,29.91,ESE,112,3.1,8.1,100,0.00,,,0.00,0.00,VWS V14.01,2013-07-15 15:21:00,
2013-07-15 08:26:00,52.7,52.7,29.91,NE,45,2.7,8.1,100,0.00,,,0.00,0.00,VWS V14.01,2013-07-15 15:26:00,
2013-07-15 08:30:00,52.7,52.7,29.91,NE,45,2.7,8.1,100,0.00,,,0.00,0.00,VWS V14.01,2013-07-15 15:30:00,
2013-07-15 08:31:00,52.5,52.5,29.91,NNE,22,2.5,2.7,100,0.00,,,0.00,0.00,VWS V14.01,2013-07-15 15:31:00,
2013-07-15 08:37:00,52.7,52.7,29.91,NNE,22,4.0,5.8,100,0.00,,,0.00,0.00,VWS V14.01,2013-07-15 15:37:00,
2013-07-15 08:42:00,53.1,53.1,29.91,NNE,22,2.5,6.3,100,0.00,,,0.00,0.00,VWS V14.01,2013-07-15 15:42:00,
2013-07-15 08:45:00,52.9,52.9,29.91,NNE,22,0.0,6.3,100,0.00,,,0.00,0.00,VWS V14.01,2013-07-15 15:45:00,
2013-07-15 08:47:00,52.9,52.9,29.91,East,90,2.0,2.2,100,0.00,,,0.00,0.00,VWS V14.01,2013-07-15 15:47:00,
2013-07-15 08:53:00,53.1,53.1,29.91,ENE,68,4.3,4.3,100,0.00,,,0.00,0.00,VWS V14.01,2013-07-15 15:53:00,
2013-07-15 09:00:00,53.2,53.2,29.91,NE,45,0.0,4.3,100,0.00,,,0.00,0.00,VWS V14.01,2013-07-15 16:00:00,
2013-07-15 09:05:00,53.2,53.2,29.91,East,90,0.0,4.0,100,0.00,,,0.00,0.00,VWS V14.01,2013-07-15 16:05:00,
2013-07-15 09:10:00,53.2,53.2,29.91,NE,45,1.6,4.7,100,0.00,,,0.00,0.00,VWS V14.01,2013-07-15 16:10:00,
2013-07-15 09:15:00,53.4,53.4,29.91,ENE,68,2.9,3.6,100,0.00,,,0.00,0.00,VWS V14.01,2013-07-15 16:15:00,
2013-07-15 09:21:00,53.6,53.6,29.91,ESE,112,2.0,4.7,100,0.00,,,0.00,0.00,VWS V14.01,2013-07-15 16:21:00,
2013-07-15 09:27:00,53.8,53.8,29.91,ESE,112,2.5,4.9,100,0.00,,,0.00,0.00,VWS V14.01,2013-07-15 16:27:00,
2013-07-15 09:30:00,53.8,53.8,29.91,NE,45,0.0,5.6,100,0.00,,,0.00,0.00,VWS V14.01,2013-07-15 16:30:00,
2013-07-15 09:32:00,53.8,53.8,29.91,NNE,22,2.7,3.6,100,0.00,,,0.00,0.00,VWS V14.01,2013-07-15 16:32:00,
2013-07-15 09:37:00,54.0,54.0,29.91,WSW,248,1.1,4.0,100,0.00,,,0.00,0.00,VWS V14.01,2013-07-15 16:37:00,
2013-07-15 09:42:00,54.0,54.0,29.91,NNE,22,3.4,4.0,100,0.00,,,0.00,0.00,VWS V14.01,2013-07-15 16:42:00,
2013-07-15 09:45:00,54.1,54.1,29.91,NE,45,3.8,5.4,100,0.00,,,0.00,0.00,VWS V14.01,2013-07-15 16:45:00,
2013-07-15 09:49:00,54.1,54.1,29.91,NNW,338,1.3,7.8,100,0.00,,,0.00,0.00,VWS V14.01,2013-07-15 16:49:00,
2013-07-15 09:56:00,54.3,54.3,29.91,East,90,4.0,7.8,100,0.00,,,0.00,0.00,VWS V14.01,2013-07-15 16:56:00,
2013-07-15 10:00:00,54.5,54.5,29.91,NNE,22,3.4,7.8,100,0.00,,,0.00,0.00,VWS V14.01,2013-07-15 17:00:00,
2013-07-15 10:01:00,54.5,54.5,29.91,NNE,22,3.1,3.4,100,0.00,,,0.00,0.00,VWS V14.01,2013-07-15 17:01:00,
2013-07-15 10:06:00,54.5,54.5,29.91,NE,45,5.4,5.4,100,0.00,,,0.00,0.00,VWS V14.01,2013-07-15 17:06:00,
2013-07-15 10:12:00,54.7,54.7,29.91,NE,45,4.3,7.2,100,0.00,,,0.00,0.00,VWS V14.01,2013-07-15 17:12:00,
2013-07-15 10:15:00,54.9,54.9,29.91,East,90,1.6,7.2,100,0.00,,,0.00,0.00,VWS V14.01,2013-07-15 17:15:00,
2013-07-15 10:17:00,55.0,55.0,29.91,South,180,2.0,4.0,100,0.00,,,0.00,0.00,VWS V14.01,2013-07-15 17:17:00,
2013-07-15 10:23:00,55.0,55.0,29.91,East,90,2.5,4.3,100,0.00,,,0.00,0.00,VWS V14.01,2013-07-15 17:23:00,
2013-07-15 10:28:00,55.2,55.2,29.91,NNE,22,2.5,4.3,100,0.00,,,0.00,0.00,VWS V14.01,2013-07-15 17:28:00,
2013-07-15 10:30:00,55.0,55.0,29.91,NE,45,2.9,4.7,100,0.00,,,0.00,0.00,VWS V14.01,2013-07-15 17:30:00,
2013-07-15 10:33:00,55.2,55.2,29.91,NNE,22,0.9,2.9,100,0.00,,,0.00,0.00,VWS V14.01,2013-07-15 17:33:00,
2013-07-15 10:38:00,55.4,55.4,29.91,SE,135,2.5,5.4,100,0.00,,,0.00,0.00,VWS V14.01,2013-07-15 17:38:00,
2013-07-15 10:43:00,55.4,55.4,29.91,NE,45,2.2,5.8,100,0.00,,,0.00,0.00,VWS V14.01,2013-07-15 17:43:00,
2013-07-15 10:45:00,55.2,55.2,29.91,East,90,0.0,5.8,100,0.00,,,0.00,0.00,VWS V14.01,2013-07-15 17:45:00,
2013-07-15 10:49:00,55.4,55.4,29.91,North,0,0.0,4.7,100,0.00,,,0.00,0.00,VWS V14.01,2013-07-15 17:49:00,
2013-07-15 10:55:00,55.6,55.6,29.91,NNE,22,2.9,5.6,100,0.00,,,0.00,0.00,VWS V14.01,2013-07-15 17:55:00,
2013-07-15 11:00:00,55.8,55.8,29.91,NE,45,3.4,5.6,100,0.00,,,0.00,0.00,VWS V14.01,2013-07-15 18:00:00,
2013-07-15 11:05:00,55.9,55.9,29.91,North,0,0.0,4.3,100,0.00,,,0.00,0.00,VWS V14.01,2013-07-15 18:05:00,
2013-07-15 11:11:00,56.1,56.1,29.91,NNE,22,2.5,4.9,100,0.00,,,0.00,0.00,VWS V14.01,2013-07-15 18:11:00,
2013-07-15 11:15:00,56.3,56.3,29.91,WNW,292,2.7,4.9,100,0.00,,,0.00,0.00,VWS V14.01,2013-07-15 18:15:00,
2013-07-15 11:16:00,56.5,56.5,29.91,NE,45,2.5,3.8,100,0.00,,,0.00,0.00,VWS V14.01,2013-07-15 18:16:00,
2013-07-15 11:21:00,56.3,56.3,29.91,ENE,68,1.6,4.3,100,0.00,,,0.00,0.00,VWS V14.01,2013-07-15 18:21:00,
2013-07-15 11:27:00,56.3,56.3,29.91,NE,45,1.6,4.3,100,0.00,,,0.00,0.00,VWS V14.01,2013-07-15 18:27:00,
2013-07-15 11:30:00,56.7,56.7,29.91,SE,135,0.0,4.3,100,0.00,,,0.00,0.00,VWS V14.01,2013-07-15 18:30:00,
2013-07-15 11:33:00,56.5,56.5,29.91,NNE,22,2.0,4.3,100,0.00,,,0.00,0.00,VWS V14.01,2013-07-15 18:33:00,
2013-07-15 11:40:00,56.8,56.8,29.91,SSW,202,1.6,5.8,100,0.00,,,0.00,0.00,VWS V14.01,2013-07-15 18:40:00,
2013-07-15 11:45:00,57.6,57.6,29.91,NE,45,1.1,5.8,100,0.00,,,0.00,0.00,VWS V14.01,2013-07-15 18:45:00,
2013-07-15 11:50:00,57.9,57.6,29.91,NE,45,3.6,7.2,99,0.00,,,0.00,0.00,VWS V14.01,2013-07-15 18:50:00,
2013-07-15 11:58:00,58.1,57.5,29.91,NE,45,3.6,10.7,98,0.00,,,0.00,0.00,VWS V14.01,2013-07-15 18:58:00,
2013-07-15 12:00:00,58.1,57.3,29.91,ENE,68,4.7,10.7,97,0.00,,,0.00,0.00,VWS V14.01,2013-07-15 19:00:00,
2013-07-15 12:03:00,58.5,57.6,29.91,East,90,2.7,5.8,97,0.00,,,0.00,0.00,VWS V14.01,2013-07-15 19:03:00,
2013-07-15 12:11:00,58.5,57.6,29.91,South,180,3.8,6.0,97,0.00,,,0.00,0.00,VWS V14.01,2013-07-15 19:11:00,
2013-07-15 12:15:00,58.3,57.2,29.91,WNW,292,2.7,6.3,96,0.00,,,0.00,0.00,VWS V14.01,2013-07-15 19:15:00,
2013-07-15 12:16:00,58.5,57.3,29.91,ESE,112,2.7,3.6,96,0.00,,,0.00,0.00,VWS V14.01,2013-07-15 19:16:00,
2013-07-15 12:21:00,58.6,57.5,29.91,South,180,2.2,8.1,96,0.00,,,0.00,0.00,VWS V14.01,2013-07-15 19:21:00,
2013-07-15 12:27:00,59.0,57.9,29.91,ENE,68,3.8,8.5,96,0.00,,,0.00,0.00,VWS V14.01,2013-07-15 19:27:00,
2013-07-15 12:30:00,59.4,57.9,29.91,ENE,68,0.0,8.5,95,0.00,,,0.00,0.00,VWS V14.01,2013-07-15 19:30:00,
2013-07-15 12:33:00,59.7,58.0,29.91,North,0,3.6,3.6,94,0.00,,,0.00,0.00,VWS V14.01,2013-07-15 19:33:00,
2013-07-15 12:39:00,60.1,58.0,29.91,SSW,202,2.0,6.0,93,0.00,,,0.00,0.00,VWS V14.01,2013-07-15 19:39:00,
2013-07-15 12:44:00,60.1,58.0,29.91,SSE,158,6.5,9.6,93,0.00,,,0.00,0.00,VWS V14.01,2013-07-15 19:44:00,
2013-07-15 12:45:00,60.1,58.0,29.91,ESE,112,3.4,9.6,93,0.00,,,0.00,0.00,VWS V14.01,2013-07-15 19:45:00,
2013-07-15 12:50:00,59.7,57.4,29.91,South,180,6.3,14.5,92,0.00,,,0.00,0.00,VWS V14.01,2013-07-15 19:50:00,
2013-07-15 12:55:00,59.9,57.9,29.91,SE,135,6.5,14.5,93,0.00,,,0.00,0.00,VWS V14.01,2013-07-15 19:55:00,
2013-07-15 13:00:00,59.7,57.7,29.91,South,180,8.5,14.5,93,0.00,,,0.00,0.00,VWS V14.01,2013-07-15 20:00:00,
2013-07-15 13:03:00,59.7,57.7,29.91,SSE,158,6.3,8.7,93,0.00,,,0.00,0.00,VWS V14.01,2013-07-15 20:03:00,
2013-07-15 13:09:00,59.5,57.8,29.91,SSE,158,4.3,10.1,94,0.00,,,0.00,0.00,VWS V14.01,2013-07-15 20:09:00,
2013-07-15 13:14:00,59.5,57.8,29.91,SSE,158,8.1,11.0,94,0.00,,,0.00,0.00,VWS V14.01,2013-07-15 20:14:00,
2013-07-15 13:15:00,59.5,57.8,29.91,SSE,158,6.3,11.0,94,0.00,,,0.00,0.00,VWS V14.01,2013-07-15 20:15:00,
2013-07-15 13:20:00,58.8,57.1,29.91,SSW,202,3.1,12.3,94,0.00,,,0.00,0.00,VWS V14.01,2013-07-15 20:20:00,
2013-07-15 13:26:00,59.4,57.6,29.91,South,180,7.2,12.8,94,0.00,,,0.00,0.00,VWS V14.01,2013-07-15 20:26:00,
2013-07-15 13:30:00,59.4,57.6,29.91,East,90,4.0,12.8,94,0.00,,,0.00,0.00,VWS V14.01,2013-07-15 20:30:00,
2013-07-15 13:31:00,59.5,57.8,29.91,SSW,202,4.3,4.7,94,0.00,,,0.00,0.00,VWS V14.01,2013-07-15 20:31:00,
2013-07-15 13:37:00,59.2,57.5,29.91,WSW,248,6.3,12.5,94,0.00,,,0.00,0.00,VWS V14.01,2013-07-15 20:37:00,
2013-07-15 13:44:00,59.2,56.9,29.91,South,180,9.8,13.6,92,0.00,,,0.00,0.00,VWS V14.01,2013-07-15 20:44:00,
2013-07-15 13:45:00,59.2,56.9,29.91,SW,225,8.1,16.6,92,0.00,,,0.00,0.00,VWS V14.01,2013-07-15 20:45:00,
2013-07-15 13:49:00,59.9,57.6,29.91,SSE,158,7.8,12.3,92,0.00,,,0.00,0.00,VWS V14.01,2013-07-15 20:49:00,
2013-07-15 13:54:00,60.4,57.8,29.91,SSW,202,12.1,15.2,91,0.00,,,0.00,0.00,VWS V14.01,2013-07-15 20:54:00,
2013-07-15 14:00:00,60.4,57.2,29.91,South,180,8.7,8.7,89,0.00,,,0.00,0.00,VWS V14.01,2013-07-15 21:00:00,
2013-07-15 14:05:00,60.3,57.3,29.91,SE,135,4.3,12.3,90,0.00,,,0.00,0.00,VWS V14.01,2013-07-15 21:05:00,
2013-07-15 14:10:00,60.3,57.3,29.91,SSW,202,7.8,12.3,90,0.00,,,0.00,0.00,VWS V14.01,2013-07-15 21:10:00,
2013-07-15 14:15:00,60.4,57.5,29.88,South,180,4.7,14.8,90,0.00,,,0.00,0.00,VWS V14.01,2013-07-15 21:15:00,
2013-07-15 14:16:00,60.4,57.5,29.88,ENE,68,3.8,6.0,90,0.00,,,0.00,0.00,VWS V14.01,2013-07-15 21:16:00,
2013-07-15 14:22:00,60.3,57.3,29.88,SSE,158,5.8,16.6,90,0.00,,,0.00,0.00,VWS V14.01,2013-07-15 21:22:00,
2013-07-15 14:27:00,60.1,57.5,29.88,SSW,202,7.6,19.5,91,0.00,,,0.00,0.00,VWS V14.01,2013-07-15 21:27:00,
2013-07-15 14:30:00,59.9,57.0,29.88,ESE,112,4.0,19.5,90,0.00,,,0.00,0.00,VWS V14.01,2013-07-15 21:30:00,
2013-07-15 14:33:00,60.1,57.1,29.88,SSW,202,11.0,13.2,90,0.00,,,0.00,0.00,VWS V14.01,2013-07-15 21:33:00,
2013-07-15 14:38:00,60.1,56.8,29.88,SE,135,6.3,15.2,89,0.00,,,0.00,0.00,VWS V14.01,2013-07-15 21:38:00,
2013-07-15 14:44:00,60.1,57.1,29.88,SSW,202,6.3,17.2,90,0.00,,,0.00,0.00,VWS V14.01,2013-07-15 21:44:00,
2013-07-15 14:45:00,60.1,57.1,29.88,SSW,202,8.5,17.2,90,0.00,,,0.00,0.00,VWS V14.01,2013-07-15 21:45:00,
2013-07-15 14:49:00,59.9,57.0,29.88,SSW,202,5.6,17.7,90,0.00,,,0.00,0.00,VWS V14.01,2013-07-15 21:49:00,
2013-07-15 14:56:00,59.5,56.6,29.88,SSE,158,6.3,22.8,90,0.00,,,0.00,0.00,VWS V14.01,2013-07-15 21:56:00,
2013-07-15 15:00:00,59.7,56.8,29.88,South,180,6.5,22.8,90,0.00,,,0.00,0.00,VWS V14.01,2013-07-15 22:00:00,
2013-07-15 15:01:00,59.7,56.8,29.88,SE,135,4.0,10.7,90,0.00,,,0.00,0.00,VWS V14.01,2013-07-15 22:01:00,
2013-07-15 15:06:00,60.1,57.1,29.88,SW,225,8.1,13.2,90,0.00,,,0.00,0.00,VWS V14.01,2013-07-15 22:06:00,
2013-07-15 15:11:00,59.9,57.0,29.88,SE,135,9.8,14.8,90,0.00,,,0.00,0.00,VWS V14.01,2013-07-15 22:11:00,
2013-07-15 15:15:00,59.7,56.5,29.88,SSE,158,9.4,14.8,89,0.00,,,0.00,0.00,VWS V14.01,2013-07-15 22:15:00,
2013-07-15 15:17:00,59.9,56.7,29.88,South,180,4.0,28.0,89,0.00,,,0.00,0.00,VWS V14.01,2013-07-15 22:17:00,
2013-07-15 15:23:00,59.7,56.5,29.88,SSW,202,5.8,28.0,89,0.00,,,0.00,0.00,VWS V14.01,2013-07-15 22:23:00,
2013-07-15 15:28:00,59.7,56.8,29.88,WSW,248,11.0,28.0,90,0.00,,,0.00,0.00,VWS V14.01,2013-07-15 22:28:00,
2013-07-15 15:30:00,59.7,56.8,29.88,SE,135,12.5,28.0,90,0.00,,,0.00,0.00,VWS V14.01,2013-07-15 22:30:00,
2013-07-15 15:34:00,59.5,56.9,29.88,SSW,202,9.4,17.2,91,0.00,,,0.00,0.00,VWS V14.01,2013-07-15 22:34:00,
2013-07-15 15:39:00,59.7,57.1,29.88,SE,135,18.1,18.1,91,0.00,,,0.00,0.00,VWS V14.01,2013-07-15 22:39:00,
2013-07-15 15:44:00,59.7,57.4,29.88,SSW,202,4.0,18.1,92,0.00,,,0.00,0.00,VWS V14.01,2013-07-15 22:44:00,
2013-07-15 15:45:00,59.9,57.6,29.88,SSW,202,5.4,18.1,92,0.00,,,0.00,0.00,VWS V14.01,2013-07-15 22:45:00,
2013-07-15 15:49:00,59.7,57.4,29.88,South,180,11.4,19.2,92,0.00,,,0.00,0.00,VWS V14.01,2013-07-15 22:49:00,
2013-07-15 15:57:00,59.4,57.3,29.88,SSE,158,5.4,23.0,93,0.00,,,0.00,0.00,VWS V14.01,2013-07-15 22:57:00,
2013-07-15 16:00:00,59.4,57.6,29.85,SSW,202,12.5,23.0,94,0.00,,,0.00,0.00,VWS V14.01,2013-07-15 23:00:00,
2013-07-15 16:03:00,59.2,57.2,29.85,South,180,11.4,18.8,93,0.00,,,0.00,0.00,VWS V14.01,2013-07-15 23:03:00,
2013-07-15 16:09:00,59.0,57.3,29.85,WSW,248,10.7,18.8,94,0.00,,,0.00,0.00,VWS V14.01,2013-07-15 23:09:00,
2013-07-15 16:14:00,58.8,57.1,29.85,SSE,158,11.0,18.8,94,0.00,,,0.00,0.00,VWS V14.01,2013-07-15 23:14:00,
2013-07-15 16:15:00,58.8,57.1,29.85,SSW,202,9.4,18.8,94,0.00,,,0.00,0.00,VWS V14.01,2013-07-15 23:15:00,
2013-07-15 16:19:00,58.8,57.1,29.85,SE,135,17.2,17.2,94,0.00,,,0.00,0.00,VWS V14.01,2013-07-15 23:19:00,
2013-07-15 16:25:00,58.6,56.9,29.85,SE,135,8.7,17.2,94,0.00,,,0.00,0.00,VWS V14.01,2013-07-15 23:25:00,
2013-07-15 16:30:00,58.6,56.9,29.85,SSW,202,19.0,20.6,94,0.00,,,0.00,0.00,VWS V14.01,2013-07-15 23:30:00,
2013-07-15 16:31:00,58.6,56.9,29.85,SSE,158,6.5,19.0,94,0.00,,,0.00,0.00,VWS V14.01,2013-07-15 23:31:00,
2013-07-15 16:36:00,58.8,57.1,29.85,South,180,13.2,21.5,94,0.00,,,0.00,0.00,VWS V14.01,2013-07-15 23:36:00,
2013-07-15 16:41:00,58.6,56.9,29.85,SSW,202,11.9,21.5,94,0.00,,,0.00,0.00,VWS V14.01,2013-07-15 23:41:00,
2013-07-15 16:45:00,58.5,56.7,29.85,South,180,13.2,21.5,94,0.00,,,0.00,0.00,VWS V14.01,2013-07-15 23:45:00,
2013-07-15 16:46:00,58.5,57.0,29.85,South,180,15.2,15.2,95,0.00,,,0.00,0.00,VWS V14.01,2013-07-15 23:46:00,
2013-07-15 16:51:00,58.6,57.2,29.85,South,180,19.5,19.5,95,0.00,,,0.00,0.00,VWS V14.01,2013-07-15 23:51:00,
2013-07-15 16:56:00,58.5,57.3,29.85,SW,225,2.7,23.0,96,0.00,,,0.00,0.00,VWS V14.01,2013-07-15 23:56:00,
2013-07-15 17:00:00,58.3,57.2,29.85,South,180,8.5,23.0,96,0.00,,,0.00,0.00,VWS V14.01,2013-07-16 00:00:00,
2013-07-15 17:02:00,58.3,57.2,29.85,South,180,10.1,14.3,96,0.00,,,0.00,0.00,VWS V14.01,2013-07-16 00:02:00,
2013-07-15 17:07:00,58.3,57.2,29.85,ESE,112,3.1,17.5,96,0.00,,,0.00,0.00,VWS V14.01,2013-07-16 00:07:00,
2013-07-15 17:13:00,58.3,57.2,29.85,South,180,10.3,17.5,96,0.00,,,0.00,0.00,VWS V14.01,2013-07-16 00:13:00,
2013-07-15 17:15:00,58.1,57.0,29.85,SSW,202,11.0,17.7,96,0.00,,,0.00,0.00,VWS V14.01,2013-07-16 00:15:00,
2013-07-15 17:18:00,58.1,57.0,29.85,SSW,202,7.8,15.7,96,0.00,,,0.00,0.00,VWS V14.01,2013-07-16 00:18:00,
2013-07-15 17:23:00,58.1,57.3,29.85,South,180,12.8,21.9,97,0.00,,,0.00,0.00,VWS V14.01,2013-07-16 00:23:00,
2013-07-15 17:28:00,58.1,57.0,29.82,South,180,12.5,21.9,96,0.00,,,0.00,0.00,VWS V14.01,2013-07-16 00:28:00,
2013-07-15 17:30:00,58.1,57.3,29.82,South,180,6.5,21.9,97,0.00,,,0.00,0.00,VWS V14.01,2013-07-16 00:30:00,
2013-07-15 17:34:00,58.1,57.0,29.82,South,180,14.1,14.1,96,0.00,,,0.00,0.00,VWS V14.01,2013-07-16 00:34:00,
2013-07-15 17:39:00,58.1,57.0,29.82,South,180,14.3,22.2,96,0.00,,,0.00,0.00,VWS V14.01,2013-07-16 00:39:00,
2013-07-15 17:45:00,58.1,57.3,29.82,South,180,10.3,22.2,97,0.00,,,0.00,0.00,VWS V14.01,2013-07-16 00:45:00,
2013-07-15 17:51:00,58.1,57.0,29.82,South,180,13.2,15.4,96,0.00,,,0.00,0.00,VWS V14.01,2013-07-16 00:51:00,
2013-07-15 17:56:00,57.9,56.8,29.82,SSE,158,4.7,15.4,96,0.00,,,0.00,0.00,VWS V14.01,2013-07-16 00:56:00,
2013-07-15 18:00:00,57.9,56.8,29.82,SSE,158,8.5,17.5,96,0.00,,,0.00,0.00,VWS V14.01,2013-07-16 01:00:00,
2013-07-15 18:04:00,57.7,56.9,29.82,SSW,202,16.6,16.6,97,0.00,,,0.00,0.00,VWS V14.01,2013-07-16 01:04:00,
2013-07-15 18:09:00,57.7,56.9,29.82,SSE,158,7.6,16.6,97,0.00,,,0.00,0.00,VWS V14.01,2013-07-16 01:09:00,
2013-07-15 18:14:00,57.7,57.2,29.82,SSW,202,10.7,17.5,98,0.00,,,0.00,0.00,VWS V14.01,2013-07-16 01:14:00,
2013-07-15 18:15:00,57.7,57.2,29.82,SE,135,4.3,17.5,98,0.00,,,0.00,0.00,VWS V14.01,2013-07-16 01:15:00,
2013-07-15 18:20:00,57.6,57.0,29.82,West,270,4.0,13.0,98,0.00,,,0.00,0.00,VWS V14.01,2013-07-16 01:20:00,
2013-07-15 18:25:00,57.6,57.3,29.82,SSW,202,5.8,17.7,99,0.00,,,0.00,0.00,VWS V14.01,2013-07-16 01:25:00,
2013-07-15 18:30:00,57.6,57.3,29.82,SSE,158,7.6,11.4,99,0.00,,,0.00,0.00,VWS V14.01,2013-07-16 01:30:00,
2013-07-15 18:36:00,57.6,57.3,29.82,SW,225,10.7,17.5,99,0.00,,,0.00,0.00,VWS V14.01,2013-07-16 01:36:00,
2013-07-15 18:41:00,57.4,57.1,29.82,SSW,202,5.8,17.5,99,0.00,,,0.00,0.00,VWS V14.01,2013-07-16 01:41:00,
2013-07-15 18:45:00,57.6,57.3,29.85,SSW,202,4.9,17.5,99,0.00,,,0.00,0.00,VWS V14.01,2013-07-16 01:45:00,
2013-07-15 18:46:00,57.6,57.6,29.85,South,180,2.7,7.8,100,0.00,,,0.00,0.00,VWS V14.01,2013-07-16 01:46:00,
2013-07-15 18:52:00,57.6,57.3,29.85,SSW,202,6.5,11.9,99,0.00,,,0.00,0.00,VWS V14.01,2013-07-16 01:52:00,
2013-07-15 18:57:00,57.6,57.3,29.85,South,180,6.0,11.9,99,0.00,,,0.00,0.00,VWS V14.01,2013-07-16 01:57:00,
2013-07-15 19:00:00,57.6,57.3,29.85,SSE,158,10.1,11.9,99,0.00,,,0.00,0.00,VWS V14.01,2013-07-16 02:00:00,
2013-07-15 19:02:00,57.6,57.3,29.85,East,90,1.3,10.1,99,0.00,,,0.00,0.00,VWS V14.01,2013-07-16 02:02:00,
2013-07-15 19:07:00,57.6,57.3,29.85,ESE,112,8.7,10.1,99,0.00,,,0.00,0.00,VWS V14.01,2013-07-16 02:07:00,
2013-07-15 19:12:00,57.6,57.3,29.85,East,90,5.4,10.1,99,0.00,,,0.00,0.00,VWS V14.01,2013-07-16 02:12:00,
2013-07-15 19:15:00,57.6,57.3,29.85,NW,315,2.5,10.1,99,0.00,,,0.00,0.00,VWS V14.01,2013-07-16 02:15:00,
2013-07-15 19:18:00,57.4,57.1,29.85,NE,45,3.4,6.5,99,0.00,,,0.00,0.00,VWS V14.01,2013-07-16 02:18:00,
2013-07-15 19:23:00,57.4,57.1,29.85,East,90,2.5,7.6,99,0.00,,,0.00,0.00,VWS V14.01,2013-07-16 02:23:00,
2013-07-15 19:28:00,57.2,56.9,29.85,NE,45,4.3,7.6,99,0.00,,,0.00,0.00,VWS V14.01,2013-07-16 02:28:00,
2013-07-15 19:30:00,57.2,56.9,29.85,NE,45,0.0,7.6,99,0.00,,,0.00,0.00,VWS V14.01,2013-07-16 02:30:00,
2013-07-15 19:33:00,57.2,57.2,29.85,North,0,4.0,5.8,100,0.00,,,0.00,0.00,VWS V14.01,2013-07-16 02:33:00,
2013-07-15 19:38:00,57.0,57.0,29.85,SE,135,5.8,7.2,100,0.00,,,0.00,0.00,VWS V14.01,2013-07-16 02:38:00,
2013-07-15 19:44:00,57.2,56.9,29.85,East,90,4.9,7.2,99,0.00,,,0.00,0.00,VWS V14.01,2013-07-16 02:44:00,
2013-07-15 19:45:00,57.0,57.0,29.85,North,0,3.1,7.4,100,0.00,,,0.00,0.00,VWS V14.01,2013-07-16 02:45:00,
2013-07-15 19:49:00,56.8,56.8,29.85,ENE,68,5.6,7.4,100,0.00,,,0.00,0.00,VWS V14.01,2013-07-16 02:49:00,
2013-07-15 19:54:00,56.8,56.8,29.85,ENE,68,2.5,8.1,100,0.00,,,0.00,0.00,VWS V14.01,2013-07-16 02:54:00,
2013-07-15 20:00:00,56.8,56.8,29.85,ESE,112,2.5,8.1,100,0.00,,,0.00,0.00,VWS V14.01,2013-07-16 03:00:00,
2013-07-15 20:06:00,56.8,56.8,29.85,NE,45,6.5,6.5,100,0.00,,,0.00,0.00,VWS V14.01,2013-07-16 03:06:00,
2013-07-15 20:11:00,56.8,56.8,29.85,North,0,4.3,6.5,100,0.00,,,0.00,0.00,VWS V14.01,2013-07-16 03:11:00,
2013-07-15 20:15:00,56.8,56.8,29.85,East,90,2.9,12.1,100,0.00,,,0.00,0.00,VWS V14.01,2013-07-16 03:15:00,
2013-07-15 20:16:00,56.8,56.8,29.85,ESE,112,3.1,3.6,100,0.00,,,0.00,0.00,VWS V14.01,2013-07-16 03:16:00,
2013-07-15 20:21:00,56.8,56.8,29.85,East,90,0.9,5.6,100,0.00,,,0.00,0.00,VWS V14.01,2013-07-16 03:21:00,
2013-07-15 20:27:00,56.8,56.8,29.85,SSE,158,7.4,7.4,100,0.00,,,0.00,0.00,VWS V14.01,2013-07-16 03:27:00,
2013-07-15 20:30:00,56.7,56.7,29.85,ESE,112,4.3,7.4,100,0.00,,,0.00,0.00,VWS V14.01,2013-07-16 03:30:00,
2013-07-15 20:32:00,56.7,56.7,29.85,East,90,2.7,5.8,100,0.00,,,0.00,0.00,VWS V14.01,2013-07-16 03:32:00,
2013-07-15 20:37:00,56.8,56.8,29.85,NE,45,2.7,5.8,100,0.00,,,0.00,0.00,VWS V14.01,2013-07-16 03:37:00,
2013-07-15 20:42:00,56.7,56.7,29.85,ENE,68,4.3,6.0,100,0.00,,,0.00,0.00,VWS V14.01,2013-07-16 03:42:00,
2013-07-15 20:45:00,56.7,56.7,29.85,SE,135,2.2,6.0,100,0.00,,,0.00,0.00,VWS V14.01,2013-07-16 03:45:00,
2013-07-15 20:48:00,56.7,56.7,29.85,ENE,68,0.0,4.0,100,0.00,,,0.00,0.00,VWS V14.01,2013-07-16 03:48:00,
2013-07-15 20:54:00,56.7,56.7,29.85,SSE,158,4.7,6.5,100,0.00,,,0.00,0.00,VWS V14.01,2013-07-16 03:54:00,
2013-07-15 20:59:00,56.7,56.7,29.85,ENE,68,0.0,6.5,100,0.00,,,0.00,0.00,VWS V14.01,2013-07-16 03:59:00,
2013-07-15 21:00:00,56.7,56.7,29.85,NE,45,3.1,6.5,100,0.00,,,0.00,0.00,VWS V14.01,2013-07-16 04:00:00,
2013-07-15 21:01:00,56.7,56.7,29.85,East,90,2.7,3.8,100,0.00,,,0.00,0.00,VWS V14.01,2013-07-16 04:01:00,
2013-07-15 21:03:00,56.7,56.7,29.85,NE,45,2.0,3.8,100,0.00,,,0.00,0.00,VWS V14.01,2013-07-16 04:03:00,
2013-07-15 21:04:00,56.7,56.7,29.85,NNE,22,0.9,3.8,100,0.00,,,0.00,0.00,VWS V14.01,2013-07-16 04:04:00,
2013-07-15 21:05:00,56.7,56.7,29.85,NE,45,2.5,3.8,100,0.00,,,0.00,0.00,VWS V14.01,2013-07-16 04:05:00,
2013-07-15 21:10:00,56.7,56.7,29.85,NNW,338,2.2,4.3,100,0.00,,,0.00,0.00,VWS V14.01,2013-07-16 04:10:00,
2013-07-15 21:15:00,56.7,56.7,29.88,ENE,68,0.0,0.0,100,0.00,,,0.00,0.00,VWS V14.01,2013-07-16 04:15:00,
2013-07-15 21:20:00,56.7,56.7,29.88,North,0,2.0,4.3,100,0.00,,,0.00,0.00,VWS V14.01,2013-07-16 04:20:00,
2013-07-15 21:26:00,56.8,56.8,29.88,NNW,338,0.0,4.7,100,0.00,,,0.00,0.00,VWS V14.01,2013-07-16 04:26:00,
2013-07-15 21:30:00,56.8,56.8,29.88,ENE,68,0.0,4.7,100,0.00,,,0.00,0.00,VWS V14.01,2013-07-16 04:30:00,
2013-07-15 21:31:00,56.8,56.8,29.88,North,0,0.0,0.9,100,0.00,,,0.00,0.00,VWS V14.01,2013-07-16 04:31:00,
2013-07-15 21:36:00,56.8,56.8,29.88,East,90,4.0,4.7,100,0.00,,,0.00,0.00,VWS V14.01,2013-07-16 04:36:00,
2013-07-15 21:41:00,56.8,56.8,29.88,NNW,338,3.4,6.7,100,0.00,,,0.00,0.00,VWS V14.01,2013-07-16 04:41:00,
2013-07-15 21:45:00,56.7,56.7,29.88,ESE,112,4.3,6.7,100,0.00,,,0.00,0.00,VWS V14.01,2013-07-16 04:45:00,
2013-07-15 21:46:00,56.7,56.7,29.88,NE,45,1.3,6.3,100,0.00,,,0.00,0.00,VWS V14.01,2013-07-16 04:46:00,
2013-07-15 21:51:00,56.7,56.7,29.88,East,90,2.9,8.1,100,0.00,,,0.00,0.00,VWS V14.01,2013-07-16 04:51:00,
2013-07-15 21:56:00,56.8,56.8,29.88,ENE,68,2.0,8.1,100,0.00,,,0.00,0.00,VWS V14.01,2013-07-16 04:56:00,
2013-07-15 22:00:00,56.8,56.8,29.88,NNW,338,3.1,8.1,100,0.00,,,0.00,0.00,VWS V14.01,2013-07-16 05:00:00,
2013-07-15 22:01:00,56.8,56.8,29.88,ENE,68,4.3,4.3,100,0.00,,,0.00,0.00,VWS V14.01,2013-07-16 05:01:00,
2013-07-15 22:06:00,56.8,56.8,29.88,NW,315,1.6,4.3,100,0.00,,,0.00,0.00,VWS V14.01,2013-07-16 05:06:00,
2013-07-15 22:11:00,56.8,56.8,29.88,NNW,338,4.3,5.4,100,0.00,,,0.00,0.00,VWS V14.01,2013-07-16 05:11:00,
2013-07-15 22:15:00,56.8,56.8,29.91,NE,45,3.8,5.4,100,0.00,,,0.00,0.00,VWS V14.01,2013-07-16 05:15:00,
2013-07-15 22:16:00,56.8,56.8,29.91,East,90,3.8,3.8,100,0.00,,,0.00,0.00,VWS V14.01,2013-07-16 05:16:00,
2013-07-15 22:21:00,56.7,56.7,29.91,North,0,4.9,5.8,100,0.00,,,0.00,0.00,VWS V14.01,2013-07-16 05:21:00,
2013-07-15 22:26:00,56.7,56.7,29.91,North,0,4.3,5.8,100,0.00,,,0.00,0.00,VWS V14.01,2013-07-16 05:26:00,
2013-07-15 22:30:00,56.5,56.5,29.88,WSW,248,1.6,5.8,100,0.00,,,0.00,0.00,VWS V14.01,2013-07-16 05:30:00,
2013-07-15 22:31:00,56.5,56.5,29.88,NNW,338,0.0,2.0,100,0.00,,,0.00,0.00,VWS V14.01,2013-07-16 05:31:00,
2013-07-15 22:36:00,56.5,56.5,29.88,East,90,2.0,3.4,100,0.00,,,0.00,0.00,VWS V14.01,2013-07-16 05:36:00,
2013-07-15 22:41:00,56.5,56.5,29.88,NNE,22,3.1,3.4,100,0.00,,,0.00,0.00,VWS V14.01,2013-07-16 05:41:00,
2013-07-15 22:45:00,56.5,56.5,29.88,ESE,112,0.0,3.4,100,0.00,,,0.00,0.00,VWS V14.01,2013-07-16 05:45:00,
2013-07-15 22:46:00,56.5,56.5,29.88,North,0,0.9,2.7,100,0.00,,,0.00,0.00,VWS V14.01,2013-07-16 05:46:00,
2013-07-15 22:51:00,56.5,56.5,29.88,East,90,1.3,3.8,100,0.00,,,0.00,0.00,VWS V14.01,2013-07-16 05:51:00,
2013-07-15 22:56:00,56.5,56.5,29.88,NNE,22,2.9,6.0,100,0.00,,,0.00,0.00,VWS V14.01,2013-07-16 05:56:00,
2013-07-15 23:00:00,56.5,56.5,29.88,North,0,3.1,6.0,100,0.00,,,0.00,0.00,VWS V14.01,2013-07-16 06:00:00,
2013-07-15 23:01:00,56.5,56.5,29.88,NNW,338,2.5,3.1,100,0.00,,,0.00,0.00,VWS V14.01,2013-07-16 06:01:00,
2013-07-15 23:06:00,56.5,56.5,29.88,NE,45,0.0,3.1,100,0.00,,,0.00,0.00,VWS V14.01,2013-07-16 06:06:00,
2013-07-15 23:11:00,56.5,56.5,29.88,NNE,22,0.0,3.1,100,0.00,,,0.00,0.00,VWS V14.01,2013-07-16 06:11:00,
2013-07-15 23:15:00,56.5,56.5,29.88,ESE,112,0.0,4.7,100,0.00,,,0.00,0.00,VWS V14.01,2013-07-16 06:15:00,
2013-07-15 23:16:00,56.5,56.5,29.88,ESE,112,0.0,0.0,100,0.00,,,0.00,0.00,VWS V14.01,2013-07-16 06:16:00,
2013-07-15 23:21:00,56.5,56.5,29.88,SSE,158,4.9,4.9,100,0.00,,,0.00,0.00,VWS V14.01,2013-07-16 06:21:00,
2013-07-15 23:26:00,56.7,56.7,29.88,East,90,0.9,5.4,100,0.00,,,0.00,0.00,VWS V14.01,2013-07-16 06:26:00,
2013-07-15 23:30:00,56.5,56.5,29.88,North,0,4.9,5.4,100,0.00,,,0.00,0.00,VWS V14.01,2013-07-16 06:30:00,
2013-07-15 23:31:00,56.5,56.5,29.88,SSW,202,0.0,4.9,100,0.00,,,0.00,0.00,VWS V14.01,2013-07-16 06:31:00,
2013-07-15 23:36:00,56.7,56.7,29.88,NE,45,0.0,5.4,100,0.00,,,0.00,0.00,VWS V14.01,2013-07-16 06:36:00,
2013-07-15 23:42:00,56.5,56.5,29.88,East,90,0.0,5.4,100,0.00,,,0.00,0.00,VWS V14.01,2013-07-16 06:42:00,
2013-07-15 23:45:00,56.5,56.5,29.88,East,90,0.0,5.4,100,0.00,,,0.00,0.00,VWS V14.01,2013-07-16 06:45:00,
2013-07-15 23:47:00,56.5,56.5,29.88,NE,45,1.3,3.1,100,0.00,,,0.00,0.00,VWS V14.01,2013-07-16 06:47:00,
2013-07-15 23:52:00,56.7,56.7,29.88,NNW,338,0.0,3.4,100,0.00,,,0.00,0.00,VWS V14.01,2013-07-16 06:52:00,
2013-07-15 23:57:00,56.5,56.5,29.88,NE,45,2.5,4.3,100,0.00,,,0.00,0.00,VWS V14.01,2013-07-16 06:57:00,